In Rescue
 
Open Full Screen Window  High Contrast Mode
December 19, 2018 9:55 AM CST
Weather Information
Wind Direction
  ---
Wind Speed
  00 kt (0 mph)
Wind Gust
  00 kt (0 mph)
Altimeter
29.51 in
Visibility
10 SM
Temperature
-02° C
28° F
Dewpoint
-04° C
25° F
Humidity
86%
1hr Rain Fall
00.00 in.
24hr Rain Fall
00.00 in.
Sky Condition
Clear
VFR

METAR KBJI 191555Z AUTO 00000KT 10SM CLR M02/M04 A2951 RMK AO2 T10251039

FAA Disclaimer: The data displayed is for advisory purposes only and is not to be used for flight planning or operations.